Weather at Lotnisko Turośń Kościelna [CLOSED]

Public forecast

Using degrees Celsius for public forecast. Weather courtesy of forecast.io.

Closest aviation weather report (METAR) to Lotnisko Turośń Kościelna

Closest report is Hrodna Airport, 50.7 nm (93.9 km) NE.

2024/05/18 13:30 (retrieved 27 minutes ago)

UMMG 181330Z 13003G06MPS 9999 SCT036 24/07 Q1015 NOSIG

Closest aviation forecast (TAF) to Lotnisko Turośń Kościelna

Closest forecast is Warsaw Chopin Airport, 91.3 nm (169.2 km) WSW.

2024/05/18 12:37 (retrieved 1 hour ago)

TAF EPWA 181130Z 1812/1912 13010KT CAVOK PROB40 TEMPO 1815/1819 SCT050TCU PROB30 TEMPO 1816/1820 TSRA BKN040CB PROB40 TEMPO 1910/1912 SCT050TCU